Time;durP1;ratioP1;P1;durP2;ratioP2;P2;SDS_P1;SDS_P2;PMS_P1;PMS_P2;Temp;Humidity;BMP_temperature;BMP_pressure;BME280_temperature;BME280_humidity;BME280_pressure;Samples;Min_cycle;Max_cycle;Signal;HPM_P1;HPM_P2
2022/05/11 00:01:16;;;;;;;12.68;2.72;;;;;;;;;;5015065;28;20034;-75
2022/05/11 00:03:42;;;;;;;5.80;2.63;;;;;;;;;;5010431;28;20040;-75
2022/05/11 00:06:09;;;;;;;7.95;2.83;;;;;;;;;;5015854;28;20447;-75
2022/05/11 00:08:35;;;;;;;8.25;3.10;;;;;;;;;;5017179;28;20069;-75
2022/05/11 00:11:02;;;;;;;6.78;2.50;;;;;;;;;;5011302;28;20085;-75
2022/05/11 00:13:29;;;;;;;7.82;3.30;;;;;;;;;;5014070;28;20145;-75
2022/05/11 00:15:55;;;;;;;8.45;3.53;;;;;;;;;;5014635;28;20036;-75
2022/05/11 00:18:21;;;;;;;7.80;2.33;;;;;;;;;;5014654;28;20084;-75
2022/05/11 00:20:47;;;;;;;5.18;2.35;;;;;;;;;;5018217;28;20087;-75
2022/05/11 00:23:13;;;;;;;6.43;2.25;;;;;;;;;;5013944;28;20038;-75
2022/05/11 00:25:39;;;;;;;7.68;1.95;;;;;;;;;;5013774;28;20057;-75
2022/05/11 00:28:05;;;;;;;7.93;3.20;;;;;;;;;;5014836;28;20048;-75
2022/05/11 00:30:31;;;;;;;8.38;3.33;;;;;;;;;;5015144;28;20038;-75
2022/05/11 00:32:59;;;;;;;9.43;3.60;;;;;;;;;;5015619;28;20121;-75
2022/05/11 00:35:29;;;;;;;8.90;3.10;;;;;;;;;;5013162;28;20033;-75
2022/05/11 00:37:55;;;;;;;8.23;3.08;;;;;;;;;;5018023;28;20038;-75
2022/05/11 00:40:22;;;;;;;6.80;2.28;;;;;;;;;;5014579;28;20116;-75
2022/05/11 00:42:48;;;;;;;7.57;2.50;;;;;;;;;;5014693;28;20034;-75
2022/05/11 00:45:14;;;;;;;4.00;2.30;;;;;;;;;;5016242;28;20112;-75
2022/05/11 00:47:45;;;;;;;4.82;2.08;;;;;;;;;;5011899;28;20061;-75
2022/05/11 00:50:15;;;;;;;4.50;2.20;;;;;;;;;;5017634;28;20044;-75
2022/05/11 00:52:41;;;;;;;6.47;2.10;;;;;;;;;;5014281;28;20044;-75
2022/05/11 00:55:18;;;;;;;5.85;3.05;;;;;;;;;;5013527;28;20050;-75
2022/05/11 00:57:54;;;;;;;4.10;2.42;;;;;;;;;;5011609;28;20116;-75
2022/05/11 01:00:20;;;;;;;11.15;4.28;;;;;;;;;;5017642;28;20029;-75
2022/05/11 01:02:48;;;;;;;9.38;5.28;;;;;;;;;;5014153;28;20902;-74
2022/05/11 01:05:14;;;;;;;4.45;2.33;;;;;;;;;;5015399;28;20033;-75
2022/05/11 01:07:40;;;;;;;5.53;2.47;;;;;;;;;;5013742;28;20041;-75
2022/05/11 01:10:08;;;;;;;5.70;2.30;;;;;;;;;;5014069;28;20156;-75
2022/05/11 01:12:37;;;;;;;5.15;2.83;;;;;;;;;;5014995;28;20078;-76
2022/05/11 01:15:04;;;;;;;9.40;3.55;;;;;;;;;;5015332;28;20356;-75
2022/05/11 01:17:32;;;;;;;7.53;2.75;;;;;;;;;;5013981;28;20589;-75
2022/05/11 01:19:58;;;;;;;8.48;2.92;;;;;;;;;;5010403;28;20030;-75
2022/05/11 01:22:34;;;;;;;6.85;2.42;;;;;;;;;;5015147;28;20046;-75
2022/05/11 01:25:00;;;;;;;5.78;2.70;;;;;;;;;;5019127;28;20071;-75
2022/05/11 01:27:26;;;;;;;6.90;2.30;;;;;;;;;;5017905;28;20482;-75
2022/05/11 01:29:53;;;;;;;6.55;2.28;;;;;;;;;;5016550;28;20029;-75
2022/05/11 01:32:19;;;;;;;6.25;2.25;;;;;;;;;;5015235;28;20079;-75
2022/05/11 01:34:47;;;;;;;6.57;3.20;;;;;;;;;;5014869;28;20387;-75
2022/05/11 01:37:13;;;;;;;7.47;3.20;;;;;;;;;;5015465;28;20104;-75
2022/05/11 01:39:39;;;;;;;7.60;3.17;;;;;;;;;;5017248;28;20029;-75
2022/05/11 01:42:05;;;;;;;12.80;4.10;;;;;;;;;;5015971;28;20815;-74
2022/05/11 01:44:31;;;;;;;8.15;3.05;;;;;;;;;;5014017;28;20852;-75
2022/05/11 01:46:58;;;;;;;7.57;2.47;;;;;;;;;;5013348;28;20045;-75
2022/05/11 01:49:25;;;;;;;8.57;3.15;;;;;;;;;;5012693;28;20037;-75
2022/05/11 01:51:51;;;;;;;6.05;2.65;;;;;;;;;;5018181;28;20485;-75
2022/05/11 01:54:17;;;;;;;7.88;3.10;;;;;;;;;;5016906;28;20037;-75
2022/05/11 01:56:43;;;;;;;7.10;2.47;;;;;;;;;;5017155;28;20148;-75
2022/05/11 01:59:09;;;;;;;8.98;3.10;;;;;;;;;;5021021;28;20036;-75
2022/05/11 02:01:36;;;;;;;6.50;3.65;;;;;;;;;;5020319;28;20044;-75
2022/05/11 02:04:03;;;;;;;8.80;3.42;;;;;;;;;;5016385;28;20068;-75
2022/05/11 02:09:14;;;;;;;8.52;3.03;;;;;;;;;;5017118;28;20088;-75
2022/05/11 02:11:40;;;;;;;6.68;2.60;;;;;;;;;;5017120;28;20041;-75
2022/05/11 02:14:06;;;;;;;6.28;3.22;;;;;;;;;;5023872;28;20076;-75
2022/05/11 02:16:32;;;;;;;5.85;2.72;;;;;;;;;;5019997;28;20033;-75
2022/05/11 02:18:58;;;;;;;5.90;2.50;;;;;;;;;;5019373;28;20405;-75
2022/05/11 02:21:25;;;;;;;9.02;3.10;;;;;;;;;;5017430;28;20044;-75
2022/05/11 02:23:52;;;;;;;8.57;3.58;;;;;;;;;;5017087;28;20034;-75
2022/05/11 02:26:21;;;;;;;7.57;3.00;;;;;;;;;;5016909;28;20395;-74
2022/05/11 02:28:48;;;;;;;8.18;3.47;;;;;;;;;;5021369;28;20034;-75
2022/05/11 02:31:14;;;;;;;10.00;3.40;;;;;;;;;;5017574;28;20725;-75
2022/05/11 02:33:40;;;;;;;8.85;2.90;;;;;;;;;;5017183;28;20084;-75
2022/05/11 02:36:06;;;;;;;9.45;3.22;;;;;;;;;;5016856;28;20038;-75
2022/05/11 02:38:33;;;;;;;9.10;2.72;;;;;;;;;;5017050;28;20025;-75
2022/05/11 02:40:59;;;;;;;5.70;2.67;;;;;;;;;;5015551;28;20040;-75
2022/05/11 02:43:26;;;;;;;7.65;2.92;;;;;;;;;;5019976;28;20025;-75
2022/05/11 02:45:52;;;;;;;6.57;2.53;;;;;;;;;;5020059;28;20037;-75
2022/05/11 02:48:20;;;;;;;7.00;2.65;;;;;;;;;;5015901;28;20037;-75
2022/05/11 02:50:48;;;;;;;6.55;3.45;;;;;;;;;;5015446;28;20034;-75
2022/05/11 02:53:14;;;;;;;6.10;3.00;;;;;;;;;;5017885;28;20125;-75
2022/05/11 02:55:42;;;;;;;9.00;2.88;;;;;;;;;;5020586;28;20065;-75
2022/05/11 02:58:08;;;;;;;9.38;2.92;;;;;;;;;;5017228;28;20861;-75
2022/05/11 03:00:38;;;;;;;8.45;2.55;;;;;;;;;;5016947;28;20033;-75
2022/05/11 03:03:05;;;;;;;7.43;3.20;;;;;;;;;;5018589;28;20124;-75
2022/05/11 03:05:31;;;;;;;8.45;2.47;;;;;;;;;;5017841;28;20463;-75
2022/05/11 03:07:58;;;;;;;11.88;2.97;;;;;;;;;;5016713;28;20593;-75
2022/05/11 03:10:24;;;;;;;7.38;2.40;;;;;;;;;;5017167;28;20056;-75
2022/05/11 03:12:50;;;;;;;5.60;2.70;;;;;;;;;;5015488;28;20616;-75
2022/05/11 03:15:16;;;;;;;7.43;2.88;;;;;;;;;;5017240;28;20104;-75
2022/05/11 03:17:42;;;;;;;13.32;3.47;;;;;;;;;;5016746;28;20033;-75
2022/05/11 03:20:09;;;;;;;12.50;3.10;;;;;;;;;;5020765;28;20034;-75
2022/05/11 03:22:35;;;;;;;6.43;2.42;;;;;;;;;;5022619;28;20033;-75
2022/05/11 03:25:01;;;;;;;6.82;2.67;;;;;;;;;;5013441;28;20045;-75
2022/05/11 03:27:27;;;;;;;12.52;3.05;;;;;;;;;;5014466;28;20840;-75
2022/05/11 03:29:54;;;;;;;8.52;2.88;;;;;;;;;;5019065;28;20030;-75
2022/05/11 03:35:05;;;;;;;6.10;2.55;;;;;;;;;;5021097;28;20060;-75
2022/05/11 03:37:31;;;;;;;7.50;2.70;;;;;;;;;;5018172;28;20072;-75
2022/05/11 03:39:57;;;;;;;10.75;3.20;;;;;;;;;;5020457;28;20084;-75
2022/05/11 03:42:28;;;;;;;9.68;3.00;;;;;;;;;;5016382;28;20029;-75
2022/05/11 03:44:55;;;;;;;9.73;2.88;;;;;;;;;;5015823;28;20092;-75
2022/05/11 03:47:21;;;;;;;7.47;3.05;;;;;;;;;;5016177;28;20049;-75
2022/05/11 03:49:47;;;;;;;6.05;2.70;;;;;;;;;;5015257;28;20034;-75
2022/05/11 03:52:16;;;;;;;5.30;2.60;;;;;;;;;;5015029;28;20069;-75
2022/05/11 03:54:42;;;;;;;5.70;2.60;;;;;;;;;;5012489;28;20657;-75
2022/05/11 03:57:08;;;;;;;10.43;3.60;;;;;;;;;;5016790;28;20076;-75
2022/05/11 03:59:34;;;;;;;10.27;3.28;;;;;;;;;;5009037;28;20226;-74
2022/05/11 04:02:00;;;;;;;7.10;2.78;;;;;;;;;;5018352;28;20033;-75
2022/05/11 04:04:26;;;;;;;14.02;4.22;;;;;;;;;;5014014;28;20081;-75
2022/05/11 04:06:52;;;;;;;10.98;4.72;;;;;;;;;;5018389;28;20103;-75
2022/05/11 04:09:18;;;;;;;13.80;5.35;;;;;;;;;;5013789;28;20038;-75
2022/05/11 04:11:44;;;;;;;15.07;5.88;;;;;;;;;;5015135;28;20045;-75
2022/05/11 04:14:10;;;;;;;15.73;5.93;;;;;;;;;;5015115;28;20076;-75
2022/05/11 04:16:36;;;;;;;19.35;6.82;;;;;;;;;;5017975;28;20466;-75
2022/05/11 04:19:02;;;;;;;23.00;8.23;;;;;;;;;;5016804;28;20029;-75
2022/05/11 04:21:29;;;;;;;13.50;5.55;;;;;;;;;;5015484;28;20097;-75
2022/05/11 04:23:55;;;;;;;7.38;3.70;;;;;;;;;;5013556;28;20049;-75
2022/05/11 04:26:21;;;;;;;7.78;2.72;;;;;;;;;;5016142;28;20034;-75
2022/05/11 04:28:47;;;;;;;11.98;4.75;;;;;;;;;;5019092;28;20048;-75
2022/05/11 04:31:13;;;;;;;17.80;9.82;;;;;;;;;;5014014;28;20037;-75
2022/05/11 04:33:39;;;;;;;22.75;12.65;;;;;;;;;;5014876;28;20141;-75
2022/05/11 04:36:06;;;;;;;24.83;11.77;;;;;;;;;;5014383;28;20076;-75
2022/05/11 04:38:32;;;;;;;23.80;11.85;;;;;;;;;;5016174;28;20037;-75
2022/05/11 04:40:58;;;;;;;21.48;10.32;;;;;;;;;;5013665;28;20475;-75
2022/05/11 04:43:24;;;;;;;21.38;9.15;;;;;;;;;;5017688;28;20087;-75
2022/05/11 04:45:50;;;;;;;12.57;6.53;;;;;;;;;;5013746;28;20084;-75
2022/05/11 04:48:17;;;;;;;9.15;4.88;;;;;;;;;;5016157;28;20835;-75
2022/05/11 04:50:44;;;;;;;9.27;4.88;;;;;;;;;;5016566;28;20030;-75
2022/05/11 04:53:12;;;;;;;9.98;2.83;;;;;;;;;;5017144;28;20049;-75
2022/05/11 04:55:38;;;;;;;8.05;3.35;;;;;;;;;;5013436;28;20044;-75
2022/05/11 04:58:04;;;;;;;11.40;4.60;;;;;;;;;;5012481;28;20061;-75
2022/05/11 05:00:31;;;;;;;10.40;4.93;;;;;;;;;;5017118;28;20344;-75
2022/05/11 05:02:57;;;;;;;10.98;4.95;;;;;;;;;;5013177;28;20037;-75
2022/05/11 05:05:23;;;;;;;14.43;4.85;;;;;;;;;;5013054;28;20096;-75
2022/05/11 05:07:49;;;;;;;11.02;4.40;;;;;;;;;;5015138;28;20057;-74
2022/05/11 05:10:16;;;;;;;11.82;4.22;;;;;;;;;;5020179;28;20025;-75
2022/05/11 05:12:43;;;;;;;11.68;4.05;;;;;;;;;;5011057;28;20045;-75
2022/05/11 05:15:10;;;;;;;12.00;3.83;;;;;;;;;;5016488;28;20375;-74
2022/05/11 05:17:37;;;;;;;9.30;3.28;;;;;;;;;;5010517;28;20037;-75
2022/05/11 05:20:04;;;;;;;7.47;2.45;;;;;;;;;;5019920;28;20447;-75
2022/05/11 05:22:30;;;;;;;6.88;3.38;;;;;;;;;;5018916;28;20470;-75
2022/05/11 05:24:56;;;;;;;8.60;3.55;;;;;;;;;;5018753;28;20132;-75
2022/05/11 05:27:23;;;;;;;9.27;3.90;;;;;;;;;;5017636;28;20049;-74
2022/05/11 05:32:38;;;;;;;8.80;2.30;;;;;;;;;;5021053;28;20639;-75
2022/05/11 05:35:04;;;;;;;9.40;2.60;;;;;;;;;;5024665;28;20100;-75
2022/05/11 05:37:30;;;;;;;17.17;4.50;;;;;;;;;;5025256;28;20112;-75
2022/05/11 05:39:56;;;;;;;10.02;3.45;;;;;;;;;;5014113;28;20037;-75
2022/05/11 05:42:24;;;;;;;11.52;2.97;;;;;;;;;;5017977;28;20063;-75
2022/05/11 05:44:50;;;;;;;9.80;2.88;;;;;;;;;;5021510;28;20079;-75
2022/05/11 05:47:16;;;;;;;6.78;2.50;;;;;;;;;;5023211;28;20434;-75
2022/05/11 05:49:42;;;;;;;6.18;2.22;;;;;;;;;;5027977;28;20475;-75
2022/05/11 05:52:08;;;;;;;6.40;2.42;;;;;;;;;;5018021;28;20869;-75
2022/05/11 05:54:38;;;;;;;12.27;3.45;;;;;;;;;;5022953;28;20034;-75
2022/05/11 05:57:04;;;;;;;9.70;2.80;;;;;;;;;;5018694;28;20073;-75
2022/05/11 05:59:30;;;;;;;8.45;2.50;;;;;;;;;;5017111;28;20030;-75
2022/05/11 06:01:57;;;;;;;9.98;2.63;;;;;;;;;;5020108;28;20848;-75
2022/05/11 06:04:23;;;;;;;5.20;2.63;;;;;;;;;;5016647;28;20038;-75
2022/05/11 06:06:49;;;;;;;7.30;2.20;;;;;;;;;;5019017;28;20137;-75
2022/05/11 06:09:15;;;;;;;5.57;2.50;;;;;;;;;;5016268;28;20033;-75
2022/05/11 06:11:41;;;;;;;5.53;2.72;;;;;;;;;;5017660;28;20100;-75
2022/05/11 06:14:07;;;;;;;6.75;3.38;;;;;;;;;;5015215;28;20044;-75
2022/05/11 06:16:33;;;;;;;10.07;2.92;;;;;;;;;;5015117;28;20171;-75
2022/05/11 06:18:59;;;;;;;7.75;2.33;;;;;;;;;;5016311;28;20053;-75
2022/05/11 06:21:26;;;;;;;6.40;2.40;;;;;;;;;;5022162;28;20060;-75
2022/05/11 06:23:52;;;;;;;10.68;2.72;;;;;;;;;;5016525;28;20037;-75
2022/05/11 06:26:19;;;;;;;10.32;3.28;;;;;;;;;;5015088;28;20045;-75
2022/05/11 06:28:46;;;;;;;9.63;3.00;;;;;;;;;;5014665;28;20034;-75
2022/05/11 06:31:13;;;;;;;9.43;2.33;;;;;;;;;;5015556;28;20110;-75
2022/05/11 06:33:39;;;;;;;7.70;2.38;;;;;;;;;;5015847;28;20029;-75
2022/05/11 06:36:06;;;;;;;6.82;2.47;;;;;;;;;;5014969;28;20034;-75
2022/05/11 06:38:32;;;;;;;11.20;2.72;;;;;;;;;;5016539;28;20380;-75
2022/05/11 06:41:05;;;;;;;8.25;3.25;;;;;;;;;;5018900;28;20034;-75
2022/05/11 06:43:31;;;;;;;9.43;3.20;;;;;;;;;;5016962;28;20026;-75
2022/05/11 06:45:57;;;;;;;7.82;2.30;;;;;;;;;;5016144;28;20045;-75
2022/05/11 06:48:23;;;;;;;7.50;3.03;;;;;;;;;;5016253;28;20068;-75
2022/05/11 06:50:49;;;;;;;9.07;3.00;;;;;;;;;;5018089;28;20044;-75
2022/05/11 06:53:16;;;;;;;9.32;2.85;;;;;;;;;;5012328;28;20033;-75
2022/05/11 07:01:12;;;;;;;4.90;2.25;;;;;;;;;;5018749;28;20123;-75
2022/05/11 07:03:38;;;;;;;10.55;2.97;;;;;;;;;;5014010;28;20034;-75
2022/05/11 07:06:05;;;;;;;8.40;2.45;;;;;;;;;;5014812;28;20050;-75
2022/05/11 07:08:40;;;;;;;4.85;2.05;;;;;;;;;;5012977;28;20038;-75
2022/05/11 07:13:53;;;;;;;7.97;1.98;;;;;;;;;;5015621;28;20111;-75
2022/05/11 07:16:19;;;;;;;6.82;2.22;;;;;;;;;;5019735;28;20438;-75
2022/05/11 07:18:45;;;;;;;5.15;1.92;;;;;;;;;;5021139;28;20116;-75
2022/05/11 07:21:11;;;;;;;6.78;2.10;;;;;;;;;;5019579;28;20109;-75
2022/05/11 07:23:37;;;;;;;6.50;1.85;;;;;;;;;;5023314;28;20037;-75
2022/05/11 07:26:03;;;;;;;4.20;1.70;;;;;;;;;;5013621;28;20029;-75
2022/05/11 07:28:29;;;;;;;9.77;2.58;;;;;;;;;;5015295;28;20041;-75
2022/05/11 07:30:55;;;;;;;10.90;2.60;;;;;;;;;;5017639;28;20048;-75
2022/05/11 07:33:21;;;;;;;8.95;3.45;;;;;;;;;;5017177;28;20041;-75
2022/05/11 07:35:47;;;;;;;5.20;1.55;;;;;;;;;;5019443;28;20029;-75
2022/05/11 07:38:17;;;;;;;7.00;1.92;;;;;;;;;;5017069;28;20076;-75
2022/05/11 07:40:43;;;;;;;5.82;1.90;;;;;;;;;;5018313;28;20083;-75
2022/05/11 07:43:10;;;;;;;3.97;1.40;;;;;;;;;;5016882;28;20046;-75
2022/05/11 07:45:37;;;;;;;5.38;1.77;;;;;;;;;;5015535;28;20029;-75
2022/05/11 07:48:03;;;;;;;4.97;1.52;;;;;;;;;;5010446;28;20038;-75
2022/05/11 07:50:31;;;;;;;5.78;1.85;;;;;;;;;;5018968;28;20021;-75
2022/05/11 07:52:57;;;;;;;7.22;2.15;;;;;;;;;;5013787;28;20036;-75
2022/05/11 07:55:27;;;;;;;8.60;2.63;;;;;;;;;;5016184;28;20037;-75
2022/05/11 08:00:39;;;;;;;9.85;2.30;;;;;;;;;;5013676;28;20055;-75
2022/05/11 08:03:05;;;;;;;8.73;2.72;;;;;;;;;;5015046;28;20096;-75
2022/05/11 08:05:32;;;;;;;8.32;2.17;;;;;;;;;;5017828;28;20076;-75
2022/05/11 08:07:59;;;;;;;8.10;2.50;;;;;;;;;;5015115;28;20037;-75
2022/05/11 08:10:35;;;;;;;6.85;2.33;;;;;;;;;;5013915;28;20558;-75
2022/05/11 08:13:05;;;;;;;6.35;2.13;;;;;;;;;;5015476;28;20115;-75
2022/05/11 08:15:32;;;;;;;10.60;2.20;;;;;;;;;;5017908;28;20064;-75
2022/05/11 08:17:58;;;;;;;8.07;2.03;;;;;;;;;;5010463;28;20038;-75
2022/05/11 08:20:26;;;;;;;7.50;2.45;;;;;;;;;;5014775;28;20041;-75
2022/05/11 08:22:52;;;;;;;6.90;2.10;;;;;;;;;;5017895;28;20038;-75
2022/05/11 08:25:20;;;;;;;6.43;2.00;;;;;;;;;;5017179;28;20087;-75
2022/05/11 08:27:47;;;;;;;6.40;2.33;;;;;;;;;;5011538;28;20049;-75
2022/05/11 08:35:43;;;;;;;5.35;1.80;;;;;;;;;;5014673;28;20525;-75
2022/05/11 08:38:11;;;;;;;4.85;1.55;;;;;;;;;;5017272;28;20038;-75
2022/05/11 08:40:37;;;;;;;8.48;1.80;;;;;;;;;;5017007;28;20057;-75
2022/05/11 08:43:05;;;;;;;4.22;1.52;;;;;;;;;;5018928;28;20038;-75
2022/05/11 08:45:52;;;;;;;9.63;2.17;;;;;;;;;;5016732;28;20384;-76
2022/05/11 08:48:22;;;;;;;12.05;1.88;;;;;;;;;;5010337;28;20152;-75
2022/05/11 08:50:48;;;;;;;9.32;1.95;;;;;;;;;;5017518;28;20063;-75
2022/05/11 08:53:14;;;;;;;9.25;1.80;;;;;;;;;;5015118;28;20041;-75
2022/05/11 08:55:52;;;;;;;5.95;1.73;;;;;;;;;;5014735;28;20029;-75
2022/05/11 08:58:18;;;;;;;4.43;1.90;;;;;;;;;;5017032;28;20038;-75
2022/05/11 09:00:45;;;;;;;7.18;1.50;;;;;;;;;;5016012;28;20498;-76
2022/05/11 09:03:15;;;;;;;5.63;2.33;;;;;;;;;;5014430;28;20048;-75
2022/05/11 09:05:41;;;;;;;9.60;2.20;;;;;;;;;;5016111;28;20059;-76
2022/05/11 09:08:09;;;;;;;4.95;2.00;;;;;;;;;;5009973;28;20045;-75
2022/05/11 09:10:37;;;;;;;8.07;2.00;;;;;;;;;;5016004;28;20060;-75
2022/05/11 09:13:07;;;;;;;7.97;1.80;;;;;;;;;;5020209;28;20033;-75
2022/05/11 09:15:55;;;;;;;6.03;2.08;;;;;;;;;;5011233;28;20080;-75
2022/05/11 09:18:42;;;;;;;5.97;1.67;;;;;;;;;;5014323;28;20044;-75
2022/05/11 09:21:19;;;;;;;10.15;2.10;;;;;;;;;;5013860;28;20041;-75
2022/05/11 09:23:50;;;;;;;6.70;1.80;;;;;;;;;;5012734;28;20044;-75
2022/05/11 09:26:27;;;;;;;6.60;1.75;;;;;;;;;;5011127;28;20030;-75
2022/05/11 09:28:54;;;;;;;7.07;2.03;;;;;;;;;;5010312;28;20056;-75
2022/05/11 09:31:25;;;;;;;5.65;1.73;;;;;;;;;;5014307;28;20029;-75
2022/05/11 09:33:54;;;;;;;10.75;1.92;;;;;;;;;;5010767;28;20384;-76
2022/05/11 09:36:35;;;;;;;8.45;1.98;;;;;;;;;;5014494;28;20518;-75
2022/05/11 09:39:13;;;;;;;5.82;2.15;;;;;;;;;;5011772;28;20032;-75
2022/05/11 09:41:40;;;;;;;5.13;1.85;;;;;;;;;;5017513;28;20053;-75
2022/05/11 09:44:19;;;;;;;5.93;2.05;;;;;;;;;;5015772;28;20030;-75
2022/05/11 09:46:46;;;;;;;7.85;1.80;;;;;;;;;;5014714;28;20092;-75
2022/05/11 09:49:13;;;;;;;11.77;2.08;;;;;;;;;;5013724;28;20037;-75
2022/05/11 09:51:39;;;;;;;4.90;1.92;;;;;;;;;;5019434;28;20041;-75
2022/05/11 09:54:14;;;;;;;8.05;2.10;;;;;;;;;;5016470;28;20038;-75
2022/05/11 09:56:46;;;;;;;10.23;1.88;;;;;;;;;;5010368;28;20651;-75
2022/05/11 09:59:17;;;;;;;6.93;1.77;;;;;;;;;;5011477;28;20026;-75
2022/05/11 10:01:43;;;;;;;5.88;1.65;;;;;;;;;;5027166;28;20034;-75
2022/05/11 10:04:10;;;;;;;7.25;2.17;;;;;;;;;;5018656;28;20041;-75
2022/05/11 10:06:43;;;;;;;5.13;2.10;;;;;;;;;;5014803;28;20098;-75
2022/05/11 10:09:09;;;;;;;4.05;1.50;;;;;;;;;;5017088;28;20056;-75
2022/05/11 10:11:41;;;;;;;7.53;2.03;;;;;;;;;;5017332;28;20037;-75
2022/05/11 10:21:50;;;;;;;;;;;;;;;;;;5013817;28;20149;-75
2022/05/11 10:22:32;;;;;;;8.85;1.52;;;;;;;;;;5014538;28;20096;-75
2022/05/11 10:25:17;;;;;;;6.82;1.60;;;;;;;;;;5016923;28;20042;-75
2022/05/11 10:27:46;;;;;;;6.15;1.88;;;;;;;;;;5012305;28;20036;-75
2022/05/11 10:30:24;;;;;;;4.80;1.70;;;;;;;;;;5014798;28;20076;-75
2022/05/11 10:32:53;;;;;;;5.25;1.52;;;;;;;;;;5012394;28;20033;-75
2022/05/11 10:35:45;;;;;;;5.13;1.60;;;;;;;;;;5033013;28;20034;-75
2022/05/11 10:38:23;;;;;;;3.97;1.80;;;;;;;;;;5017027;28;20069;-75
2022/05/11 10:41:09;;;;;;;10.32;1.90;;;;;;;;;;5015857;28;20034;-75
2022/05/11 10:43:38;;;;;;;6.85;1.90;;;;;;;;;;5014392;28;20033;-75
2022/05/11 10:46:05;;;;;;;16.73;2.35;;;;;;;;;;5012092;28;20048;-75
2022/05/11 10:48:50;;;;;;;6.85;1.77;;;;;;;;;;5013014;28;20112;-75
2022/05/11 10:51:27;;;;;;;6.78;1.95;;;;;;;;;;5019333;28;20084;-75
2022/05/11 10:54:05;;;;;;;5.03;1.90;;;;;;;;;;5019074;28;20072;-75
2022/05/11 10:56:31;;;;;;;8.05;2.38;;;;;;;;;;5018638;28;20422;-75
2022/05/11 10:59:08;;;;;;;5.40;2.15;;;;;;;;;;5017507;28;20061;-76
2022/05/11 11:01:45;;;;;;;5.30;2.08;;;;;;;;;;5013382;28;20412;-75
2022/05/11 11:04:26;;;;;;;7.97;2.22;;;;;;;;;;5019249;28;20493;-75
2022/05/11 11:07:16;;;;;;;5.03;2.03;;;;;;;;;;5012493;28;20541;-75
2022/05/11 11:09:48;;;;;;;5.00;2.00;;;;;;;;;;5017544;28;20042;-75
2022/05/11 11:12:23;;;;;;;4.00;1.83;;;;;;;;;;5015052;28;20152;-75
2022/05/11 11:14:51;;;;;;;7.30;1.80;;;;;;;;;;5013085;28;20096;-75
2022/05/11 11:17:21;;;;;;;5.97;1.80;;;;;;;;;;5016289;28;20057;-75
2022/05/11 11:19:49;;;;;;;5.60;2.00;;;;;;;;;;5015901;28;20061;-75
2022/05/11 11:22:15;;;;;;;10.40;2.47;;;;;;;;;;5015772;28;20034;-75
2022/05/11 11:24:43;;;;;;;7.78;1.92;;;;;;;;;;5013896;28;20029;-75
2022/05/11 11:27:09;;;;;;;4.65;1.92;;;;;;;;;;5013990;28;20046;-75
2022/05/11 11:29:36;;;;;;;8.18;2.08;;;;;;;;;;5013313;28;20060;-75
2022/05/11 11:32:02;;;;;;;4.47;1.98;;;;;;;;;;5016155;28;20131;-76
2022/05/11 11:34:34;;;;;;;6.05;1.95;;;;;;;;;;5014295;28;20033;-75
2022/05/11 11:37:00;;;;;;;5.07;1.98;;;;;;;;;;5013900;28;20543;-75
2022/05/11 11:39:48;;;;;;;6.15;1.73;;;;;;;;;;5014558;28;20589;-75
2022/05/11 11:42:29;;;;;;;5.03;1.70;;;;;;;;;;5013260;28;20063;-75
2022/05/11 11:44:55;;;;;;;9.40;2.15;;;;;;;;;;5023292;28;20065;-75
2022/05/11 11:47:27;;;;;;;3.60;1.83;;;;;;;;;;5011974;28;20060;-75
2022/05/11 11:49:57;;;;;;;5.00;1.92;;;;;;;;;;5011355;28;20029;-75
2022/05/11 11:52:32;;;;;;;7.25;1.85;;;;;;;;;;5016290;28;20143;-75
2022/05/11 11:54:58;;;;;;;4.68;1.80;;;;;;;;;;5021638;28;20048;-76
2022/05/11 11:57:24;;;;;;;8.02;2.05;;;;;;;;;;5012306;28;20045;-75
2022/05/11 11:59:50;;;;;;;5.97;2.08;;;;;;;;;;5009863;28;20037;-75
2022/05/11 12:02:22;;;;;;;4.72;1.80;;;;;;;;;;5021893;28;20538;-75
2022/05/11 12:05:27;;;;;;;4.35;1.63;;;;;;;;;;5017737;28;20068;-74
2022/05/11 12:16:29;;;;;;;4.53;1.52;;;;;;;;;;5021123;28;20719;-74
2022/05/11 12:19:12;;;;;;;5.90;1.73;;;;;;;;;;5016424;28;20865;-74
2022/05/11 12:21:39;;;;;;;6.22;1.52;;;;;;;;;;5012569;28;20026;-74
2022/05/11 12:24:07;;;;;;;10.55;2.28;;;;;;;;;;5016999;28;20038;-74
2022/05/11 12:26:40;;;;;;;12.73;1.80;;;;;;;;;;5019417;28;20034;-74
2022/05/11 12:32:00;;;;;;;4.45;1.90;;;;;;;;;;5018772;28;20044;-74
2022/05/11 12:34:28;;;;;;;6.30;1.85;;;;;;;;;;5015106;28;20546;-74
2022/05/11 12:36:54;;;;;;;5.40;2.10;;;;;;;;;;5016617;28;20026;-74
2022/05/11 12:39:30;;;;;;;6.53;1.92;;;;;;;;;;5012858;28;20273;-74
2022/05/11 12:41:56;;;;;;;7.75;1.73;;;;;;;;;;5014541;28;20030;-75
2022/05/11 12:44:28;;;;;;;4.88;1.50;;;;;;;;;;5018860;28;20041;-74
2022/05/11 12:46:56;;;;;;;6.75;1.60;;;;;;;;;;5014199;28;20491;-74
2022/05/11 12:49:22;;;;;;;3.97;1.90;;;;;;;;;;5012609;28;20899;-74
2022/05/11 12:51:53;;;;;;;5.85;2.10;;;;;;;;;;5015144;28;20434;-74
2022/05/11 12:54:23;;;;;;;6.47;1.70;;;;;;;;;;5014261;28;20048;-74
2022/05/11 12:57:03;;;;;;;6.05;1.80;;;;;;;;;;5018310;28;20280;-74
2022/05/11 12:59:30;;;;;;;7.53;2.22;;;;;;;;;;5010979;28;20543;-74
2022/05/11 13:02:14;;;;;;;5.63;1.85;;;;;;;;;;5009953;28;20041;-74
2022/05/11 13:05:07;;;;;;;8.07;1.58;;;;;;;;;;5013800;28;20076;-74
2022/05/11 13:07:35;;;;;;;2.83;1.52;;;;;;;;;;5011458;28;20057;-74
2022/05/11 13:10:03;;;;;;;4.32;1.70;;;;;;;;;;5014440;28;20048;-74
2022/05/11 13:12:29;;;;;;;5.55;1.80;;;;;;;;;;5019496;28;20108;-74
2022/05/11 13:14:56;;;;;;;4.68;1.52;;;;;;;;;;5013926;28;20507;-74
2022/05/11 13:17:35;;;;;;;3.97;1.40;;;;;;;;;;5011659;28;20084;-74
2022/05/11 13:20:04;;;;;;;8.48;1.90;;;;;;;;;;5016498;28;20037;-74
2022/05/11 13:22:30;;;;;;;5.65;2.15;;;;;;;;;;5015332;28;20037;-74
2022/05/11 13:25:01;;;;;;;3.28;1.55;;;;;;;;;;5017781;28;20044;-74
2022/05/11 13:27:33;;;;;;;4.67;1.60;;;;;;;;;;5009314;28;20061;-74
2022/05/11 13:30:02;;;;;;;6.55;1.60;;;;;;;;;;5012549;28;20403;-74
2022/05/11 13:32:28;;;;;;;8.27;1.75;;;;;;;;;;5015311;28;20151;-75
2022/05/11 13:35:13;;;;;;;6.18;2.28;;;;;;;;;;5014659;28;20452;-74
2022/05/11 13:37:39;;;;;;;7.38;1.92;;;;;;;;;;5017732;28;20034;-74
2022/05/11 13:40:05;;;;;;;6.80;1.75;;;;;;;;;;5019141;28;20025;-74
2022/05/11 13:42:32;;;;;;;8.50;1.73;;;;;;;;;;5021979;28;20044;-74
2022/05/11 13:45:04;;;;;;;7.85;2.13;;;;;;;;;;5015378;28;20051;-74
2022/05/11 13:50:17;;;;;;;5.03;1.55;;;;;;;;;;5023678;28;20120;-74
2022/05/11 13:52:52;;;;;;;4.68;2.00;;;;;;;;;;5018572;28;20090;-74
2022/05/11 13:55:28;;;;;;;7.13;1.67;;;;;;;;;;5016126;28;20040;-74
2022/05/11 13:57:54;;;;;;;5.10;1.80;;;;;;;;;;5018291;28;20033;-74
2022/05/11 14:00:24;;;;;;;4.93;1.52;;;;;;;;;;5018276;28;20075;-75
2022/05/11 14:03:00;;;;;;;6.40;2.33;;;;;;;;;;5042748;28;20061;-74
2022/05/11 14:05:27;;;;;;;7.28;1.90;;;;;;;;;;5015635;28;20061;-75
2022/05/11 14:07:53;;;;;;;7.07;1.80;;;;;;;;;;5016820;28;20168;-74
2022/05/11 14:10:20;;;;;;;7.18;1.42;;;;;;;;;;5016283;28;20079;-74
2022/05/11 14:12:46;;;;;;;4.43;1.58;;;;;;;;;;5014778;28;20042;-74
2022/05/11 14:15:13;;;;;;;4.22;1.75;;;;;;;;;;5015930;28;20111;-74
2022/05/11 14:17:44;;;;;;;7.43;2.10;;;;;;;;;;5016666;28;20441;-74
2022/05/11 14:20:10;;;;;;;5.15;2.13;;;;;;;;;;5013578;28;20105;-74
2022/05/11 14:22:41;;;;;;;5.35;2.33;;;;;;;;;;5018457;28;20048;-74
2022/05/11 14:25:08;;;;;;;5.70;1.67;;;;;;;;;;5013459;28;20119;-74
2022/05/11 14:27:34;;;;;;;20.63;3.00;;;;;;;;;;5018393;28;20041;-74
2022/05/11 14:30:00;;;;;;;11.52;2.22;;;;;;;;;;5018757;28;20033;-74
2022/05/11 14:32:26;;;;;;;6.47;2.08;;;;;;;;;;5019108;28;20053;-74
2022/05/11 14:34:52;;;;;;;6.65;2.00;;;;;;;;;;5019670;28;20578;-74
2022/05/11 14:37:18;;;;;;;14.88;2.40;;;;;;;;;;5019000;28;20591;-74
2022/05/11 14:39:45;;;;;;;8.25;2.38;;;;;;;;;;5016195;28;20040;-74
2022/05/11 14:42:11;;;;;;;5.93;2.22;;;;;;;;;;5022334;28;20034;-74
2022/05/11 14:44:37;;;;;;;5.10;1.77;;;;;;;;;;5017378;28;20037;-75
2022/05/11 14:47:03;;;;;;;7.55;1.80;;;;;;;;;;5018365;28;20045;-74
2022/05/11 14:49:29;;;;;;;5.82;1.85;;;;;;;;;;5012480;28;20475;-74
2022/05/11 14:51:55;;;;;;;6.03;2.10;;;;;;;;;;5017462;28;20084;-74
2022/05/11 14:54:22;;;;;;;7.47;1.95;;;;;;;;;;5012773;28;20065;-74
2022/05/11 15:01:55;;;;;;;5.40;2.20;;;;;;;;;;5017857;28;20080;-74
2022/05/11 15:02:22;;;;;;;6.05;1.80;;;;;;;;;;5017243;28;20111;-74
2022/05/11 15:04:48;;;;;;;6.22;1.80;;;;;;;;;;5009982;28;20034;-74
2022/05/11 15:07:17;;;;;;;7.53;1.90;;;;;;;;;;5017076;28;20490;-74
2022/05/11 15:09:43;;;;;;;6.32;2.00;;;;;;;;;;5018831;28;20033;-75
2022/05/11 15:14:54;;;;;;;13.77;2.10;;;;;;;;;;5018287;28;20501;-74
2022/05/11 15:17:22;;;;;;;6.72;2.15;;;;;;;;;;5017795;28;20041;-74
2022/05/11 15:19:48;;;;;;;5.07;1.88;;;;;;;;;;5015954;28;20029;-75
2022/05/11 15:22:15;;;;;;;9.13;2.17;;;;;;;;;;5011810;28;20072;-74
2022/05/11 15:24:41;;;;;;;5.20;2.05;;;;;;;;;;5017230;28;20040;-74
2022/05/11 15:27:07;;;;;;;8.25;2.00;;;;;;;;;;5013463;28;20038;-74
2022/05/11 15:29:33;;;;;;;15.40;2.22;;;;;;;;;;5016344;28;20073;-74
2022/05/11 15:32:00;;;;;;;6.72;2.13;;;;;;;;;;5015410;28;20398;-74
2022/05/11 15:34:29;;;;;;;5.82;1.98;;;;;;;;;;5012252;28;20041;-74
2022/05/11 15:36:56;;;;;;;6.47;2.00;;;;;;;;;;5015631;28;20025;-74
2022/05/11 15:39:25;;;;;;;4.88;2.13;;;;;;;;;;5014576;28;20041;-74